Remsenburg, New York
Current Conditions -  °F | °C
As of 2:53 AM on Saturday 25 Oct 2014 (Local Time) from KFOK Reporting Station
Clear Clear  
Wind Chill: 50°   Ceiling: Unl
Heat Index: 50°   Visibility: 10mi
Dew Point: 43°   Wind: 8mph
Humidity: 77%   Direction: 310°NW
Pressure: 29.82"   Gusts: NA
Location:  40.81°N, 72.71°W
Report Text: KFOK 250653Z AUTO 31007KT 10SM CLR 10/06 A2982 RMK AO2 SLP098 T01000061 TSNO
Loading
Personal Weather Stations






























Interactive Weather Map
Tropical Storm Tracking
New forecast layout! Learn more

10-Day Weather Forecast

Advertisements
Track Severe Weather on mobile